sensor_id;sensor_type;location;lat;lon;timestamp;temperature;humidity
20066;DHT22;10193;48.884;9.182;2023-01-01T00:01:13;15.90;79.50
20066;DHT22;10193;48.884;9.182;2023-01-01T00:03:42;15.90;79.30
20066;DHT22;10193;48.884;9.182;2023-01-01T00:06:10;15.90;79.20
20066;DHT22;10193;48.884;9.182;2023-01-01T00:08:37;15.90;79.30
20066;DHT22;10193;48.884;9.182;2023-01-01T00:11:06;15.90;79.30
20066;DHT22;10193;48.884;9.182;2023-01-01T00:13:32;15.90;79.50
20066;DHT22;10193;48.884;9.182;2023-01-01T00:16:03;15.90;79.70
20066;DHT22;10193;48.884;9.182;2023-01-01T00:18:30;15.80;79.50
20066;DHT22;10193;48.884;9.182;2023-01-01T00:21:02;15.90;79.70
20066;DHT22;10193;48.884;9.182;2023-01-01T00:23:29;15.80;79.10
20066;DHT22;10193;48.884;9.182;2023-01-01T00:25:56;15.90;79.80
20066;DHT22;10193;48.884;9.182;2023-01-01T00:28:23;15.90;80.00
20066;DHT22;10193;48.884;9.182;2023-01-01T00:30:50;15.90;79.70
20066;DHT22;10193;48.884;9.182;2023-01-01T00:33:16;15.90;79.70
20066;DHT22;10193;48.884;9.182;2023-01-01T00:35:43;15.90;79.60
20066;DHT22;10193;48.884;9.182;2023-01-01T00:38:11;15.90;79.30
20066;DHT22;10193;48.884;9.182;2023-01-01T00:40:38;15.90;79.20
20066;DHT22;10193;48.884;9.182;2023-01-01T00:43:04;15.90;79.10
20066;DHT22;10193;48.884;9.182;2023-01-01T00:45:31;15.90;79.10
20066;DHT22;10193;48.884;9.182;2023-01-01T00:47:58;15.90;79.20
20066;DHT22;10193;48.884;9.182;2023-01-01T00:50:24;15.90;79.30
20066;DHT22;10193;48.884;9.182;2023-01-01T00:52:51;15.80;79.30
20066;DHT22;10193;48.884;9.182;2023-01-01T00:55:19;15.80;79.30
20066;DHT22;10193;48.884;9.182;2023-01-01T00:57:46;15.80;79.40
20066;DHT22;10193;48.884;9.182;2023-01-01T01:00:13;15.80;79.30
20066;DHT22;10193;48.884;9.182;2023-01-01T01:02:40;15.80;79.10
20066;DHT22;10193;48.884;9.182;2023-01-01T01:05:08;15.80;79.40
20066;DHT22;10193;48.884;9.182;2023-01-01T01:07:35;15.80;79.40
20066;DHT22;10193;48.884;9.182;2023-01-01T01:10:03;15.80;79.30
20066;DHT22;10193;48.884;9.182;2023-01-01T01:12:32;15.80;79.40
20066;DHT22;10193;48.884;9.182;2023-01-01T01:14:59;15.80;79.20
20066;DHT22;10193;48.884;9.182;2023-01-01T01:17:26;15.90;79.80
20066;DHT22;10193;48.884;9.182;2023-01-01T01:19:54;15.90;79.30
20066;DHT22;10193;48.884;9.182;2023-01-01T01:22:21;15.90;79.20
20066;DHT22;10193;48.884;9.182;2023-01-01T01:24:48;15.90;79.10
20066;DHT22;10193;48.884;9.182;2023-01-01T01:27:15;15.90;79.10
20066;DHT22;10193;48.884;9.182;2023-01-01T01:29:43;15.90;79.10
20066;DHT22;10193;48.884;9.182;2023-01-01T01:32:10;15.80;78.90
20066;DHT22;10193;48.884;9.182;2023-01-01T01:34:37;15.90;79.10
20066;DHT22;10193;48.884;9.182;2023-01-01T01:37:04;15.90;79.00
20066;DHT22;10193;48.884;9.182;2023-01-01T01:39:31;15.80;78.70
20066;DHT22;10193;48.884;9.182;2023-01-01T01:41:57;15.80;78.80
20066;DHT22;10193;48.884;9.182;2023-01-01T01:44:53;15.80;79.60
20066;DHT22;10193;48.884;9.182;2023-01-01T01:47:24;15.80;76.90
20066;DHT22;10193;48.884;9.182;2023-01-01T01:49:54;15.80;78.60
20066;DHT22;10193;48.884;9.182;2023-01-01T01:52:23;15.80;78.60
20066;DHT22;10193;48.884;9.182;2023-01-01T01:54:49;15.80;78.90
20066;DHT22;10193;48.884;9.182;2023-01-01T01:57:16;15.70;78.60
20066;DHT22;10193;48.884;9.182;2023-01-01T01:59:47;15.70;78.90
20066;DHT22;10193;48.884;9.182;2023-01-01T02:02:21;15.80;78.70
20066;DHT22;10193;48.884;9.182;2023-01-01T02:04:53;15.80;78.60
20066;DHT22;10193;48.884;9.182;2023-01-01T02:07:20;15.80;79.60
20066;DHT22;10193;48.884;9.182;2023-01-01T02:09:47;15.80;79.50
20066;DHT22;10193;48.884;9.182;2023-01-01T02:12:14;15.80;79.50
20066;DHT22;10193;48.884;9.182;2023-01-01T02:14:41;15.80;79.50
20066;DHT22;10193;48.884;9.182;2023-01-01T02:17:10;15.90;79.20
20066;DHT22;10193;48.884;9.182;2023-01-01T02:19:53;15.80;78.70
20066;DHT22;10193;48.884;9.182;2023-01-01T02:22:26;15.90;77.80
20066;DHT22;10193;48.884;9.182;2023-01-01T02:25:07;15.80;77.80
20066;DHT22;10193;48.884;9.182;2023-01-01T02:27:45;15.80;77.70
20066;DHT22;10193;48.884;9.182;2023-01-01T02:30:15;15.80;77.90
20066;DHT22;10193;48.884;9.182;2023-01-01T02:32:44;15.70;78.40
20066;DHT22;10193;48.884;9.182;2023-01-01T02:35:13;15.70;78.60
20066;DHT22;10193;48.884;9.182;2023-01-01T02:38:04;15.70;78.70
20066;DHT22;10193;48.884;9.182;2023-01-01T02:40:33;15.70;78.80
20066;DHT22;10193;48.884;9.182;2023-01-01T02:43:02;15.70;78.80
20066;DHT22;10193;48.884;9.182;2023-01-01T02:45:30;15.70;79.50
20066;DHT22;10193;48.884;9.182;2023-01-01T02:48:01;15.70;78.50
20066;DHT22;10193;48.884;9.182;2023-01-01T02:50:28;15.70;78.40
20066;DHT22;10193;48.884;9.182;2023-01-01T02:53:05;15.70;78.10
20066;DHT22;10193;48.884;9.182;2023-01-01T02:55:45;15.60;77.30
20066;DHT22;10193;48.884;9.182;2023-01-01T02:58:18;15.60;77.10
20066;DHT22;10193;48.884;9.182;2023-01-01T03:01:11;15.60;78.00
20066;DHT22;10193;48.884;9.182;2023-01-01T03:03:50;15.50;78.10
20066;DHT22;10193;48.884;9.182;2023-01-01T03:06:26;15.50;78.50
20066;DHT22;10193;48.884;9.182;2023-01-01T03:09:01;15.50;78.60
20066;DHT22;10193;48.884;9.182;2023-01-01T03:11:34;15.50;78.70
20066;DHT22;10193;48.884;9.182;2023-01-01T03:14:10;15.60;79.00
20066;DHT22;10193;48.884;9.182;2023-01-01T03:16:44;15.60;78.90
20066;DHT22;10193;48.884;9.182;2023-01-01T03:19:15;15.60;78.70
20066;DHT22;10193;48.884;9.182;2023-01-01T03:21:45;15.70;79.00
20066;DHT22;10193;48.884;9.182;2023-01-01T03:24:19;15.70;78.90
20066;DHT22;10193;48.884;9.182;2023-01-01T03:26:49;15.60;78.50
20066;DHT22;10193;48.884;9.182;2023-01-01T03:29:18;15.70;78.60
20066;DHT22;10193;48.884;9.182;2023-01-01T03:31:49;15.70;78.40
20066;DHT22;10193;48.884;9.182;2023-01-01T03:34:20;15.60;77.90
20066;DHT22;10193;48.884;9.182;2023-01-01T03:36:52;15.70;78.20
20066;DHT22;10193;48.884;9.182;2023-01-01T03:39:23;15.70;78.10
20066;DHT22;10193;48.884;9.182;2023-01-01T03:41:57;15.70;78.30
20066;DHT22;10193;48.884;9.182;2023-01-01T03:44:29;15.70;77.80
20066;DHT22;10193;48.884;9.182;2023-01-01T03:46:59;15.60;77.90
20066;DHT22;10193;48.884;9.182;2023-01-01T03:49:27;15.60;77.90
20066;DHT22;10193;48.884;9.182;2023-01-01T03:52:04;15.60;77.90
20066;DHT22;10193;48.884;9.182;2023-01-01T03:54:44;15.60;77.10
20066;DHT22;10193;48.884;9.182;2023-01-01T03:57:16;15.60;77.40
20066;DHT22;10193;48.884;9.182;2023-01-01T03:59:51;15.50;77.40
20066;DHT22;10193;48.884;9.182;2023-01-01T04:02:24;15.50;77.30
20066;DHT22;10193;48.884;9.182;2023-01-01T04:04:53;15.50;77.50
20066;DHT22;10193;48.884;9.182;2023-01-01T04:07:20;15.50;77.90
20066;DHT22;10193;48.884;9.182;2023-01-01T04:09:49;15.40;77.80
20066;DHT22;10193;48.884;9.182;2023-01-01T04:12:18;15.40;77.70
20066;DHT22;10193;48.884;9.182;2023-01-01T04:14:45;15.40;77.70
20066;DHT22;10193;48.884;9.182;2023-01-01T04:17:12;15.40;77.70
20066;DHT22;10193;48.884;9.182;2023-01-01T04:19:40;15.40;77.50
20066;DHT22;10193;48.884;9.182;2023-01-01T04:22:07;15.30;77.30
20066;DHT22;10193;48.884;9.182;2023-01-01T04:24:33;15.30;77.30
20066;DHT22;10193;48.884;9.182;2023-01-01T04:27:00;15.30;77.30
20066;DHT22;10193;48.884;9.182;2023-01-01T04:29:27;15.30;77.50
20066;DHT22;10193;48.884;9.182;2023-01-01T04:31:53;15.20;77.40
20066;DHT22;10193;48.884;9.182;2023-01-01T04:34:20;15.20;77.50
20066;DHT22;10193;48.884;9.182;2023-01-01T04:36:48;15.20;77.90
20066;DHT22;10193;48.884;9.182;2023-01-01T04:39:15;15.20;77.80
20066;DHT22;10193;48.884;9.182;2023-01-01T04:41:41;15.10;77.80
20066;DHT22;10193;48.884;9.182;2023-01-01T04:44:08;15.10;77.80
20066;DHT22;10193;48.884;9.182;2023-01-01T04:46:35;15.10;78.00
20066;DHT22;10193;48.884;9.182;2023-01-01T04:49:01;15.10;78.00
20066;DHT22;10193;48.884;9.182;2023-01-01T04:51:28;15.10;78.00
20066;DHT22;10193;48.884;9.182;2023-01-01T04:53:57;15.10;78.00
20066;DHT22;10193;48.884;9.182;2023-01-01T04:56:24;15.10;77.90
20066;DHT22;10193;48.884;9.182;2023-01-01T04:58:51;15.10;78.20
20066;DHT22;10193;48.884;9.182;2023-01-01T05:01:20;15.10;78.30
20066;DHT22;10193;48.884;9.182;2023-01-01T05:03:47;15.10;78.30
20066;DHT22;10193;48.884;9.182;2023-01-01T05:06:15;15.10;78.40
20066;DHT22;10193;48.884;9.182;2023-01-01T05:08:44;15.10;78.50
20066;DHT22;10193;48.884;9.182;2023-01-01T05:11:13;15.10;78.40
20066;DHT22;10193;48.884;9.182;2023-01-01T05:13:42;15.10;78.30
20066;DHT22;10193;48.884;9.182;2023-01-01T05:16:11;15.10;78.30
20066;DHT22;10193;48.884;9.182;2023-01-01T05:18:39;15.10;78.30
20066;DHT22;10193;48.884;9.182;2023-01-01T05:21:07;15.10;78.30
20066;DHT22;10193;48.884;9.182;2023-01-01T05:23:34;15.00;78.10
20066;DHT22;10193;48.884;9.182;2023-01-01T05:26:08;15.00;78.00
20066;DHT22;10193;48.884;9.182;2023-01-01T05:28:37;15.00;77.40
20066;DHT22;10193;48.884;9.182;2023-01-01T05:31:05;15.00;78.00
20066;DHT22;10193;48.884;9.182;2023-01-01T05:33:32;15.00;78.30
20066;DHT22;10193;48.884;9.182;2023-01-01T05:35:59;15.00;78.30
20066;DHT22;10193;48.884;9.182;2023-01-01T05:38:26;15.00;78.30
20066;DHT22;10193;48.884;9.182;2023-01-01T05:40:53;15.00;78.30
20066;DHT22;10193;48.884;9.182;2023-01-01T05:43:19;15.10;78.40
20066;DHT22;10193;48.884;9.182;2023-01-01T05:45:47;14.90;78.10
20066;DHT22;10193;48.884;9.182;2023-01-01T05:48:14;14.90;78.00
20066;DHT22;10193;48.884;9.182;2023-01-01T05:50:41;14.90;78.30
20066;DHT22;10193;48.884;9.182;2023-01-01T05:53:07;15.00;78.40
20066;DHT22;10193;48.884;9.182;2023-01-01T05:55:34;14.90;78.40
20066;DHT22;10193;48.884;9.182;2023-01-01T05:58:00;14.90;78.40
20066;DHT22;10193;48.884;9.182;2023-01-01T06:00:27;15.00;78.50
20066;DHT22;10193;48.884;9.182;2023-01-01T06:02:55;15.00;78.40
20066;DHT22;10193;48.884;9.182;2023-01-01T06:05:22;15.00;78.40
20066;DHT22;10193;48.884;9.182;2023-01-01T06:07:48;15.00;78.50
20066;DHT22;10193;48.884;9.182;2023-01-01T06:10:15;15.00;78.40
20066;DHT22;10193;48.884;9.182;2023-01-01T06:12:42;15.00;78.40
20066;DHT22;10193;48.884;9.182;2023-01-01T06:15:09;15.00;78.30
20066;DHT22;10193;48.884;9.182;2023-01-01T06:17:35;15.00;78.30
20066;DHT22;10193;48.884;9.182;2023-01-01T06:20:04;15.00;78.30
20066;DHT22;10193;48.884;9.182;2023-01-01T06:22:31;15.00;78.20
20066;DHT22;10193;48.884;9.182;2023-01-01T06:25:01;15.00;78.30
20066;DHT22;10193;48.884;9.182;2023-01-01T06:27:27;15.00;78.20
20066;DHT22;10193;48.884;9.182;2023-01-01T06:29:54;15.00;78.10
20066;DHT22;10193;48.884;9.182;2023-01-01T06:32:22;15.00;78.00
20066;DHT22;10193;48.884;9.182;2023-01-01T06:34:48;15.00;77.90
20066;DHT22;10193;48.884;9.182;2023-01-01T06:37:16;14.90;77.80
20066;DHT22;10193;48.884;9.182;2023-01-01T06:39:43;14.90;77.80
20066;DHT22;10193;48.884;9.182;2023-01-01T06:42:10;14.90;77.80
20066;DHT22;10193;48.884;9.182;2023-01-01T06:44:36;14.90;77.70
20066;DHT22;10193;48.884;9.182;2023-01-01T06:47:03;14.80;77.80
20066;DHT22;10193;48.884;9.182;2023-01-01T06:49:30;14.80;77.80
20066;DHT22;10193;48.884;9.182;2023-01-01T06:51:56;14.80;77.80
20066;DHT22;10193;48.884;9.182;2023-01-01T06:54:24;14.80;77.90
20066;DHT22;10193;48.884;9.182;2023-01-01T06:56:51;14.70;77.60
20066;DHT22;10193;48.884;9.182;2023-01-01T06:59:18;14.70;77.80
20066;DHT22;10193;48.884;9.182;2023-01-01T07:01:44;14.70;77.80
20066;DHT22;10193;48.884;9.182;2023-01-01T07:04:13;14.70;77.80
20066;DHT22;10193;48.884;9.182;2023-01-01T07:06:40;14.70;78.00
20066;DHT22;10193;48.884;9.182;2023-01-01T07:09:08;14.70;77.90
20066;DHT22;10193;48.884;9.182;2023-01-01T07:11:36;14.70;78.10
20066;DHT22;10193;48.884;9.182;2023-01-01T07:14:02;14.60;78.10
20066;DHT22;10193;48.884;9.182;2023-01-01T07:16:29;14.60;78.00
20066;DHT22;10193;48.884;9.182;2023-01-01T07:18:56;14.60;78.30
20066;DHT22;10193;48.884;9.182;2023-01-01T07:21:26;14.60;78.30
20066;DHT22;10193;48.884;9.182;2023-01-01T07:23:53;14.60;78.20
20066;DHT22;10193;48.884;9.182;2023-01-01T07:26:21;14.60;78.40
20066;DHT22;10193;48.884;9.182;2023-01-01T07:28:50;14.60;78.40
20066;DHT22;10193;48.884;9.182;2023-01-01T07:31:16;14.60;78.30
20066;DHT22;10193;48.884;9.182;2023-01-01T07:33:43;14.60;78.50
20066;DHT22;10193;48.884;9.182;2023-01-01T07:36:10;14.60;78.40
20066;DHT22;10193;48.884;9.182;2023-01-01T07:38:36;14.60;78.50
20066;DHT22;10193;48.884;9.182;2023-01-01T07:41:03;14.70;78.40
20066;DHT22;10193;48.884;9.182;2023-01-01T07:43:30;14.60;78.30
20066;DHT22;10193;48.884;9.182;2023-01-01T07:45:58;14.60;78.40
20066;DHT22;10193;48.884;9.182;2023-01-01T07:48:25;14.60;78.40
20066;DHT22;10193;48.884;9.182;2023-01-01T07:50:52;14.70;78.60
20066;DHT22;10193;48.884;9.182;2023-01-01T07:53:19;14.70;78.70
20066;DHT22;10193;48.884;9.182;2023-01-01T07:55:45;14.70;78.70
20066;DHT22;10193;48.884;9.182;2023-01-01T07:58:12;14.70;78.80
20066;DHT22;10193;48.884;9.182;2023-01-01T08:00:39;14.70;78.90
20066;DHT22;10193;48.884;9.182;2023-01-01T08:03:08;14.70;78.90
20066;DHT22;10193;48.884;9.182;2023-01-01T08:05:36;14.70;79.00
20066;DHT22;10193;48.884;9.182;2023-01-01T08:08:03;14.80;79.10
20066;DHT22;10193;48.884;9.182;2023-01-01T08:10:30;14.80;79.10
20066;DHT22;10193;48.884;9.182;2023-01-01T08:12:59;14.90;79.00
20066;DHT22;10193;48.884;9.182;2023-01-01T08:15:26;14.90;78.80
20066;DHT22;10193;48.884;9.182;2023-01-01T08:17:55;14.90;78.60
20066;DHT22;10193;48.884;9.182;2023-01-01T08:20:23;14.90;78.50
20066;DHT22;10193;48.884;9.182;2023-01-01T08:22:50;14.90;78.40
20066;DHT22;10193;48.884;9.182;2023-01-01T08:25:17;15.00;78.60
20066;DHT22;10193;48.884;9.182;2023-01-01T08:27:44;15.00;78.60
20066;DHT22;10193;48.884;9.182;2023-01-01T08:30:12;15.00;78.60
20066;DHT22;10193;48.884;9.182;2023-01-01T08:32:40;15.00;78.60
20066;DHT22;10193;48.884;9.182;2023-01-01T08:35:07;15.00;78.60
20066;DHT22;10193;48.884;9.182;2023-01-01T08:37:35;15.00;78.70
20066;DHT22;10193;48.884;9.182;2023-01-01T08:40:03;15.00;78.70
20066;DHT22;10193;48.884;9.182;2023-01-01T08:42:29;15.10;78.60
20066;DHT22;10193;48.884;9.182;2023-01-01T08:44:56;15.10;78.60
20066;DHT22;10193;48.884;9.182;2023-01-01T08:47:24;15.10;78.70
20066;DHT22;10193;48.884;9.182;2023-01-01T08:49:51;15.10;78.70
20066;DHT22;10193;48.884;9.182;2023-01-01T08:52:19;15.20;78.70
20066;DHT22;10193;48.884;9.182;2023-01-01T08:54:47;15.20;78.70
20066;DHT22;10193;48.884;9.182;2023-01-01T08:57:14;15.20;78.60
20066;DHT22;10193;48.884;9.182;2023-01-01T08:59:41;15.20;78.80
20066;DHT22;10193;48.884;9.182;2023-01-01T09:02:08;15.30;78.90
20066;DHT22;10193;48.884;9.182;2023-01-01T09:04:35;15.30;79.10
20066;DHT22;10193;48.884;9.182;2023-01-01T09:07:02;15.30;79.20
20066;DHT22;10193;48.884;9.182;2023-01-01T09:09:29;15.40;79.30
20066;DHT22;10193;48.884;9.182;2023-01-01T09:11:58;15.40;79.20
20066;DHT22;10193;48.884;9.182;2023-01-01T09:14:30;15.50;79.00
20066;DHT22;10193;48.884;9.182;2023-01-01T09:16:57;15.50;79.30
20066;DHT22;10193;48.884;9.182;2023-01-01T09:19:24;15.60;79.30
20066;DHT22;10193;48.884;9.182;2023-01-01T09:21:51;15.60;79.00
20066;DHT22;10193;48.884;9.182;2023-01-01T09:24:18;15.70;79.00
20066;DHT22;10193;48.884;9.182;2023-01-01T09:26:44;15.70;78.90
20066;DHT22;10193;48.884;9.182;2023-01-01T09:29:13;15.80;78.80
20066;DHT22;10193;48.884;9.182;2023-01-01T09:31:42;15.80;78.90
20066;DHT22;10193;48.884;9.182;2023-01-01T09:34:09;15.80;78.90
20066;DHT22;10193;48.884;9.182;2023-01-01T09:36:36;15.80;78.70
20066;DHT22;10193;48.884;9.182;2023-01-01T09:39:03;15.90;78.70
20066;DHT22;10193;48.884;9.182;2023-01-01T09:41:56;15.90;78.70
20066;DHT22;10193;48.884;9.182;2023-01-01T09:47:24;16.00;77.80
20066;DHT22;10193;48.884;9.182;2023-01-01T09:49:59;16.10;79.10
20066;DHT22;10193;48.884;9.182;2023-01-01T09:52:34;16.20;78.90
20066;DHT22;10193;48.884;9.182;2023-01-01T09:55:03;16.30;79.70
20066;DHT22;10193;48.884;9.182;2023-01-01T09:57:35;16.30;78.90
20066;DHT22;10193;48.884;9.182;2023-01-01T10:00:08;16.40;79.20
20066;DHT22;10193;48.884;9.182;2023-01-01T10:02:46;16.40;78.50
20066;DHT22;10193;48.884;9.182;2023-01-01T10:05:25;16.50;78.60
20066;DHT22;10193;48.884;9.182;2023-01-01T10:07:57;16.60;78.10
20066;DHT22;10193;48.884;9.182;2023-01-01T10:10:34;16.70;78.50
20066;DHT22;10193;48.884;9.182;2023-01-01T10:13:12;16.70;77.70
20066;DHT22;10193;48.884;9.182;2023-01-01T10:15:48;16.80;77.90
20066;DHT22;10193;48.884;9.182;2023-01-01T10:18:21;16.90;77.80
20066;DHT22;10193;48.884;9.182;2023-01-01T10:20:57;16.90;78.10
20066;DHT22;10193;48.884;9.182;2023-01-01T10:23:26;17.00;78.00
20066;DHT22;10193;48.884;9.182;2023-01-01T10:25:56;17.00;78.20
20066;DHT22;10193;48.884;9.182;2023-01-01T10:28:26;17.10;78.20
20066;DHT22;10193;48.884;9.182;2023-01-01T10:31:10;17.10;78.00
20066;DHT22;10193;48.884;9.182;2023-01-01T10:33:39;17.20;77.10
20066;DHT22;10193;48.884;9.182;2023-01-01T10:36:08;17.30;78.60
20066;DHT22;10193;48.884;9.182;2023-01-01T10:38:36;17.30;78.30
20066;DHT22;10193;48.884;9.182;2023-01-01T10:41:06;17.40;78.20
20066;DHT22;10193;48.884;9.182;2023-01-01T10:43:33;17.40;78.70
20066;DHT22;10193;48.884;9.182;2023-01-01T10:46:03;17.50;77.80
20066;DHT22;10193;48.884;9.182;2023-01-01T10:48:30;17.50;77.60
20066;DHT22;10193;48.884;9.182;2023-01-01T10:51:00;17.50;77.60
20066;DHT22;10193;48.884;9.182;2023-01-01T10:53:29;17.50;77.70
20066;DHT22;10193;48.884;9.182;2023-01-01T10:56:00;17.50;77.70
20066;DHT22;10193;48.884;9.182;2023-01-01T10:58:38;17.50;77.60
20066;DHT22;10193;48.884;9.182;2023-01-01T11:01:08;17.60;77.40
20066;DHT22;10193;48.884;9.182;2023-01-01T11:03:35;17.60;77.70
20066;DHT22;10193;48.884;9.182;2023-01-01T11:06:13;17.70;77.90
20066;DHT22;10193;48.884;9.182;2023-01-01T11:08:47;17.70;77.70
20066;DHT22;10193;48.884;9.182;2023-01-01T11:11:20;17.80;77.60
20066;DHT22;10193;48.884;9.182;2023-01-01T11:13:49;17.80;77.00
20066;DHT22;10193;48.884;9.182;2023-01-01T11:16:18;17.90;77.70
20066;DHT22;10193;48.884;9.182;2023-01-01T11:18:45;17.90;77.50
20066;DHT22;10193;48.884;9.182;2023-01-01T11:21:18;18.00;77.60
20066;DHT22;10193;48.884;9.182;2023-01-01T11:23:46;18.00;76.50
20066;DHT22;10193;48.884;9.182;2023-01-01T11:26:20;18.10;77.40
20066;DHT22;10193;48.884;9.182;2023-01-01T11:28:59;18.10;76.70
20066;DHT22;10193;48.884;9.182;2023-01-01T11:31:29;18.20;76.00
20066;DHT22;10193;48.884;9.182;2023-01-01T11:33:59;18.20;76.70
20066;DHT22;10193;48.884;9.182;2023-01-01T11:36:28;18.30;76.90
20066;DHT22;10193;48.884;9.182;2023-01-01T11:39:07;18.30;76.60
20066;DHT22;10193;48.884;9.182;2023-01-01T11:41:41;18.40;75.40
20066;DHT22;10193;48.884;9.182;2023-01-01T11:44:10;18.40;76.00
20066;DHT22;10193;48.884;9.182;2023-01-01T11:46:43;18.50;76.40
20066;DHT22;10193;48.884;9.182;2023-01-01T11:49:13;18.50;75.80
20066;DHT22;10193;48.884;9.182;2023-01-01T11:51:40;18.60;76.00
20066;DHT22;10193;48.884;9.182;2023-01-01T11:54:22;18.60;75.90
20066;DHT22;10193;48.884;9.182;2023-01-01T11:56:52;18.60;74.20
20066;DHT22;10193;48.884;9.182;2023-01-01T11:59:24;18.60;75.40
20066;DHT22;10193;48.884;9.182;2023-01-01T12:01:57;18.70;75.20
20066;DHT22;10193;48.884;9.182;2023-01-01T12:04:27;18.70;74.80
20066;DHT22;10193;48.884;9.182;2023-01-01T12:06:59;18.70;75.00
20066;DHT22;10193;48.884;9.182;2023-01-01T12:09:32;18.70;74.80
20066;DHT22;10193;48.884;9.182;2023-01-01T12:12:05;18.80;74.70
20066;DHT22;10193;48.884;9.182;2023-01-01T12:14:41;18.80;74.70
20066;DHT22;10193;48.884;9.182;2023-01-01T12:17:17;18.80;74.30
20066;DHT22;10193;48.884;9.182;2023-01-01T12:19:52;18.80;73.80
20066;DHT22;10193;48.884;9.182;2023-01-01T12:22:20;18.80;74.10
20066;DHT22;10193;48.884;9.182;2023-01-01T12:24:47;18.90;74.80
20066;DHT22;10193;48.884;9.182;2023-01-01T12:27:20;18.90;74.70
20066;DHT22;10193;48.884;9.182;2023-01-01T12:30:04;18.90;74.10
20066;DHT22;10193;48.884;9.182;2023-01-01T12:32:53;18.90;72.70
20066;DHT22;10193;48.884;9.182;2023-01-01T12:35:35;18.90;73.20
20066;DHT22;10193;48.884;9.182;2023-01-01T12:38:16;18.90;73.60
20066;DHT22;10193;48.884;9.182;2023-01-01T12:40:49;18.90;72.80
20066;DHT22;10193;48.884;9.182;2023-01-01T12:43:20;19.00;74.00
20066;DHT22;10193;48.884;9.182;2023-01-01T12:46:24;19.00;74.00
20066;DHT22;10193;48.884;9.182;2023-01-01T12:49:17;18.90;71.30
20066;DHT22;10193;48.884;9.182;2023-01-01T12:51:50;19.00;71.70
20066;DHT22;10193;48.884;9.182;2023-01-01T12:55:03;19.00;73.40
20066;DHT22;10193;48.884;9.182;2023-01-01T12:57:37;19.00;71.00
20066;DHT22;10193;48.884;9.182;2023-01-01T13:00:13;19.10;73.80
20066;DHT22;10193;48.884;9.182;2023-01-01T13:02:47;19.10;72.40
20066;DHT22;10193;48.884;9.182;2023-01-01T13:05:19;19.10;72.80
20066;DHT22;10193;48.884;9.182;2023-01-01T13:07:50;19.10;72.90
20066;DHT22;10193;48.884;9.182;2023-01-01T13:10:23;19.10;73.10
20066;DHT22;10193;48.884;9.182;2023-01-01T13:12:52;19.10;72.50
20066;DHT22;10193;48.884;9.182;2023-01-01T13:15:52;19.10;73.00
20066;DHT22;10193;48.884;9.182;2023-01-01T13:18:22;19.10;70.20
20066;DHT22;10193;48.884;9.182;2023-01-01T13:20:59;19.10;72.90
20066;DHT22;10193;48.884;9.182;2023-01-01T13:23:47;19.10;71.60
20066;DHT22;10193;48.884;9.182;2023-01-01T13:26:33;19.10;70.50
20066;DHT22;10193;48.884;9.182;2023-01-01T13:32:07;19.10;70.60
20066;DHT22;10193;48.884;9.182;2023-01-01T13:35:14;19.20;72.90
20066;DHT22;10193;48.884;9.182;2023-01-01T13:37:44;19.10;70.00
20066;DHT22;10193;48.884;9.182;2023-01-01T13:40:46;19.20;72.80
20066;DHT22;10193;48.884;9.182;2023-01-01T13:43:19;19.20;70.40
20066;DHT22;10193;48.884;9.182;2023-01-01T13:45:46;19.20;72.10
20066;DHT22;10193;48.884;9.182;2023-01-01T13:48:29;19.20;72.40
20066;DHT22;10193;48.884;9.182;2023-01-01T13:51:06;19.20;71.40
20066;DHT22;10193;48.884;9.182;2023-01-01T13:53:56;19.20;71.70
20066;DHT22;10193;48.884;9.182;2023-01-01T13:56:36;19.10;70.20
20066;DHT22;10193;48.884;9.182;2023-01-01T13:59:34;19.10;71.10
20066;DHT22;10193;48.884;9.182;2023-01-01T14:02:19;19.10;69.20
20066;DHT22;10193;48.884;9.182;2023-01-01T14:04:50;19.10;70.30
20066;DHT22;10193;48.884;9.182;2023-01-01T14:07:30;19.10;71.70
20066;DHT22;10193;48.884;9.182;2023-01-01T14:10:31;19.10;70.50
20066;DHT22;10193;48.884;9.182;2023-01-01T14:13:13;19.00;68.90
20066;DHT22;10193;48.884;9.182;2023-01-01T14:15:48;19.00;70.30
20066;DHT22;10193;48.884;9.182;2023-01-01T14:18:17;19.00;71.60
20066;DHT22;10193;48.884;9.182;2023-01-01T14:20:47;19.00;71.60
20066;DHT22;10193;48.884;9.182;2023-01-01T14:23:18;19.00;71.50
20066;DHT22;10193;48.884;9.182;2023-01-01T14:25:47;19.00;70.90
20066;DHT22;10193;48.884;9.182;2023-01-01T14:28:17;19.00;71.00
20066;DHT22;10193;48.884;9.182;2023-01-01T14:30:45;19.00;70.70
20066;DHT22;10193;48.884;9.182;2023-01-01T14:33:21;18.90;70.60
20066;DHT22;10193;48.884;9.182;2023-01-01T14:35:52;18.90;69.50
20066;DHT22;10193;48.884;9.182;2023-01-01T14:38:23;18.90;70.90
20066;DHT22;10193;48.884;9.182;2023-01-01T14:41:01;18.90;70.10
20066;DHT22;10193;48.884;9.182;2023-01-01T14:43:29;18.80;69.30
20066;DHT22;10193;48.884;9.182;2023-01-01T14:45:56;18.80;70.40
20066;DHT22;10193;48.884;9.182;2023-01-01T14:48:22;18.70;70.20
20066;DHT22;10193;48.884;9.182;2023-01-01T14:50:51;18.70;70.50
20066;DHT22;10193;48.884;9.182;2023-01-01T14:53:20;18.60;70.30
20066;DHT22;10193;48.884;9.182;2023-01-01T14:55:50;18.60;70.30
20066;DHT22;10193;48.884;9.182;2023-01-01T14:58:20;18.60;70.50
20066;DHT22;10193;48.884;9.182;2023-01-01T15:00:48;18.50;70.20
20066;DHT22;10193;48.884;9.182;2023-01-01T15:03:16;18.50;70.60
20066;DHT22;10193;48.884;9.182;2023-01-01T15:05:44;18.40;70.60
20066;DHT22;10193;48.884;9.182;2023-01-01T15:08:19;18.40;70.70
20066;DHT22;10193;48.884;9.182;2023-01-01T15:10:46;18.30;69.80
20066;DHT22;10193;48.884;9.182;2023-01-01T15:13:18;18.40;71.00
20066;DHT22;10193;48.884;9.182;2023-01-01T15:15:47;18.30;70.50
20066;DHT22;10193;48.884;9.182;2023-01-01T15:18:38;18.30;70.90
20066;DHT22;10193;48.884;9.182;2023-01-01T15:21:09;18.30;69.00
20066;DHT22;10193;48.884;9.182;2023-01-01T15:23:38;18.20;70.70
20066;DHT22;10193;48.884;9.182;2023-01-01T15:26:08;18.20;70.60
20066;DHT22;10193;48.884;9.182;2023-01-01T15:28:40;18.10;70.10
20066;DHT22;10193;48.884;9.182;2023-01-01T15:31:07;18.10;69.90
20066;DHT22;10193;48.884;9.182;2023-01-01T15:33:35;18.00;70.20
20066;DHT22;10193;48.884;9.182;2023-01-01T15:36:01;18.00;70.10
20066;DHT22;10193;48.884;9.182;2023-01-01T15:38:30;17.90;70.00
20066;DHT22;10193;48.884;9.182;2023-01-01T15:40:59;17.80;70.00
20066;DHT22;10193;48.884;9.182;2023-01-01T15:43:27;17.70;70.00
20066;DHT22;10193;48.884;9.182;2023-01-01T15:45:58;17.70;70.10
20066;DHT22;10193;48.884;9.182;2023-01-01T15:48:30;17.60;69.90
20066;DHT22;10193;48.884;9.182;2023-01-01T15:51:11;17.50;69.80
20066;DHT22;10193;48.884;9.182;2023-01-01T15:53:46;17.40;68.90
20066;DHT22;10193;48.884;9.182;2023-01-01T15:56:14;17.30;69.70
20066;DHT22;10193;48.884;9.182;2023-01-01T15:58:46;17.30;70.40